sensor_id;sensor_type;location;lat;lon;timestamp;pressure;altitude;pressure_sealevel;temperature;humidity
23318;BME280;11831;55.918;37.746;2022-12-18T00:00:59;98865.72;;;-2.50;0.00
23318;BME280;11831;55.918;37.746;2022-12-18T00:03:26;98869.06;;;-2.31;0.00
23318;BME280;11831;55.918;37.746;2022-12-18T00:05:52;98864.34;;;-2.28;0.00
23318;BME280;11831;55.918;37.746;2022-12-18T00:08:19;98852.75;;;-2.67;0.00
23318;BME280;11831;55.918;37.746;2022-12-18T00:10:45;98850.00;;;-2.58;0.00
23318;BME280;11831;55.918;37.746;2022-12-18T00:13:12;98845.69;;;-2.75;0.00
23318;BME280;11831;55.918;37.746;2022-12-18T00:15:39;98840.50;;;-2.67;0.00
23318;BME280;11831;55.918;37.746;2022-12-18T00:18:06;98832.72;;;-2.34;0.00
23318;BME280;11831;55.918;37.746;2022-12-18T00:20:37;98835.13;;;-2.57;0.00
23318;BME280;11831;55.918;37.746;2022-12-18T00:23:04;98822.22;;;-2.51;0.00
23318;BME280;11831;55.918;37.746;2022-12-18T00:25:35;98815.88;;;-2.82;0.00
23318;BME280;11831;55.918;37.746;2022-12-18T00:28:03;98797.81;;;-2.67;0.00
23318;BME280;11831;55.918;37.746;2022-12-18T00:30:30;98798.94;;;-2.62;0.00
23318;BME280;11831;55.918;37.746;2022-12-18T00:32:57;98804.19;;;-2.54;0.00
23318;BME280;11831;55.918;37.746;2022-12-18T00:35:24;98795.44;;;-2.87;0.00
23318;BME280;11831;55.918;37.746;2022-12-18T00:37:50;98792.91;;;-2.46;0.00
23318;BME280;11831;55.918;37.746;2022-12-18T00:40:17;98780.56;;;-2.78;0.00
23318;BME280;11831;55.918;37.746;2022-12-18T00:42:43;98785.69;;;-2.68;0.00
23318;BME280;11831;55.918;37.746;2022-12-18T00:45:29;98797.66;;;-2.50;0.00
23318;BME280;11831;55.918;37.746;2022-12-18T00:47:56;98790.28;;;-2.62;0.00
23318;BME280;11831;55.918;37.746;2022-12-18T00:50:24;98759.72;;;-2.45;0.00
23318;BME280;11831;55.918;37.746;2022-12-18T00:52:51;98775.78;;;-2.32;0.00
23318;BME280;11831;55.918;37.746;2022-12-18T00:55:17;98769.03;;;-2.59;0.00
23318;BME280;11831;55.918;37.746;2022-12-18T00:57:44;98753.66;;;-2.46;0.00
23318;BME280;11831;55.918;37.746;2022-12-18T01:00:14;98754.66;;;-2.31;0.00
23318;BME280;11831;55.918;37.746;2022-12-18T01:02:41;98756.78;;;-2.42;0.00
23318;BME280;11831;55.918;37.746;2022-12-18T01:05:09;98747.12;;;-2.34;0.00
23318;BME280;11831;55.918;37.746;2022-12-18T01:07:36;98753.84;;;-2.39;0.00
23318;BME280;11831;55.918;37.746;2022-12-18T01:10:03;98755.78;;;-2.58;0.00
23318;BME280;11831;55.918;37.746;2022-12-18T01:12:30;98751.84;;;-2.70;0.00
23318;BME280;11831;55.918;37.746;2022-12-18T01:14:56;98749.88;;;-2.68;0.00
23318;BME280;11831;55.918;37.746;2022-12-18T01:17:23;98740.72;;;-2.56;0.00
23318;BME280;11831;55.918;37.746;2022-12-18T01:19:49;98752.19;;;-2.48;0.00
23318;BME280;11831;55.918;37.746;2022-12-18T01:22:16;98729.38;;;-2.81;0.00
23318;BME280;11831;55.918;37.746;2022-12-18T01:24:42;98733.84;;;-2.73;0.00
23318;BME280;11831;55.918;37.746;2022-12-18T01:27:09;98736.63;;;-2.58;0.00
23318;BME280;11831;55.918;37.746;2022-12-18T01:29:36;98718.97;;;-2.64;0.00
23318;BME280;11831;55.918;37.746;2022-12-18T01:32:02;98719.78;;;-2.64;0.00
23318;BME280;11831;55.918;37.746;2022-12-18T01:34:29;98714.03;;;-2.75;0.00
23318;BME280;11831;55.918;37.746;2022-12-18T01:36:55;98712.37;;;-2.76;0.00
23318;BME280;11831;55.918;37.746;2022-12-18T01:39:22;98711.38;;;-2.92;0.00
23318;BME280;11831;55.918;37.746;2022-12-18T01:41:48;98685.09;;;-2.66;0.00
23318;BME280;11831;55.918;37.746;2022-12-18T01:47:43;98701.94;;;-2.68;0.00
23318;BME280;11831;55.918;37.746;2022-12-18T01:52:53;98698.94;;;-2.90;0.00
23318;BME280;11831;55.918;37.746;2022-12-18T01:55:23;98704.59;;;-2.44;0.00
23318;BME280;11831;55.918;37.746;2022-12-18T01:57:54;98700.31;;;-2.61;0.00
23318;BME280;11831;55.918;37.746;2022-12-18T02:00:22;98693.22;;;-3.01;0.00
23318;BME280;11831;55.918;37.746;2022-12-18T02:02:49;98688.66;;;-2.83;0.00
23318;BME280;11831;55.918;37.746;2022-12-18T02:05:19;98682.16;;;-2.71;0.00
23318;BME280;11831;55.918;37.746;2022-12-18T02:12:56;98689.19;;;-2.71;0.00
23318;BME280;11831;55.918;37.746;2022-12-18T02:15:39;98695.25;;;-2.38;0.00
23318;BME280;11831;55.918;37.746;2022-12-18T02:18:12;98700.50;;;-3.13;0.00
23318;BME280;11831;55.918;37.746;2022-12-18T02:20:49;98682.97;;;-2.70;0.00
23318;BME280;11831;55.918;37.746;2022-12-18T02:26:26;98694.25;;;-2.62;0.00
23318;BME280;11831;55.918;37.746;2022-12-18T02:29:02;98701.62;;;-2.73;0.00
23318;BME280;11831;55.918;37.746;2022-12-18T02:31:36;98685.75;;;-2.72;0.00
23318;BME280;11831;55.918;37.746;2022-12-18T02:34:06;98691.81;;;-2.63;0.00
23318;BME280;11831;55.918;37.746;2022-12-18T02:36:36;98708.81;;;-2.75;0.00
23318;BME280;11831;55.918;37.746;2022-12-18T02:39:06;98707.69;;;-2.24;0.00
23318;BME280;11831;55.918;37.746;2022-12-18T02:41:34;98709.78;;;-2.68;0.00
23318;BME280;11831;55.918;37.746;2022-12-18T02:44:08;98716.19;;;-2.22;0.00
23318;BME280;11831;55.918;37.746;2022-12-18T02:46:39;98703.38;;;-2.90;0.00
23318;BME280;11831;55.918;37.746;2022-12-18T02:55:08;98710.31;;;-2.40;0.00
23318;BME280;11831;55.918;37.746;2022-12-18T03:00:35;98723.69;;;-2.60;0.00
23318;BME280;11831;55.918;37.746;2022-12-18T03:03:27;98705.22;;;-2.58;0.00
23318;BME280;11831;55.918;37.746;2022-12-18T03:05:58;98683.91;;;-2.88;0.00
23318;BME280;11831;55.918;37.746;2022-12-18T03:08:29;98686.41;;;-2.70;0.00
23318;BME280;11831;55.918;37.746;2022-12-18T03:11:03;98704.72;;;-2.70;0.00
23318;BME280;11831;55.918;37.746;2022-12-18T03:13:50;98698.19;;;-2.58;0.00
23318;BME280;11831;55.918;37.746;2022-12-18T03:16:23;98680.28;;;-3.03;0.00
23318;BME280;11831;55.918;37.746;2022-12-18T03:18:56;98691.59;;;-2.94;0.00
23318;BME280;11831;55.918;37.746;2022-12-18T03:21:45;98684.28;;;-2.74;0.00
23318;BME280;11831;55.918;37.746;2022-12-18T03:24:13;98686.84;;;-2.83;0.00
23318;BME280;11831;55.918;37.746;2022-12-18T03:26:44;98675.78;;;-2.36;0.00
23318;BME280;11831;55.918;37.746;2022-12-18T03:29:22;98673.81;;;-2.74;0.00
23318;BME280;11831;55.918;37.746;2022-12-18T03:31:54;98678.06;;;-2.57;0.00
23318;BME280;11831;55.918;37.746;2022-12-18T03:34:30;98678.56;;;-2.70;0.00
23318;BME280;11831;55.918;37.746;2022-12-18T03:36:59;98687.56;;;-2.72;0.00
23318;BME280;11831;55.918;37.746;2022-12-18T03:39:26;98707.59;;;-3.05;0.00
23318;BME280;11831;55.918;37.746;2022-12-18T03:44:51;98694.41;;;-2.71;0.00
23318;BME280;11831;55.918;37.746;2022-12-18T03:47:36;98679.53;;;-2.63;0.00
23318;BME280;11831;55.918;37.746;2022-12-18T03:50:34;98693.59;;;-2.72;0.00
23318;BME280;11831;55.918;37.746;2022-12-18T03:55:41;98707.38;;;-2.37;0.00
23318;BME280;11831;55.918;37.746;2022-12-18T03:58:09;98712.78;;;-2.31;0.00
23318;BME280;11831;55.918;37.746;2022-12-18T04:00:38;98706.53;;;-2.62;0.00
23318;BME280;11831;55.918;37.746;2022-12-18T04:03:05;98712.25;;;-2.51;0.00
23318;BME280;11831;55.918;37.746;2022-12-18T04:05:34;98711.97;;;-2.39;0.00
23318;BME280;11831;55.918;37.746;2022-12-18T04:08:03;98705.72;;;-2.63;0.00
23318;BME280;11831;55.918;37.746;2022-12-18T04:10:30;98697.69;;;-2.53;0.00
23318;BME280;11831;55.918;37.746;2022-12-18T04:12:57;98697.22;;;-2.24;0.00
23318;BME280;11831;55.918;37.746;2022-12-18T04:15:24;98658.28;;;-2.43;0.00
23318;BME280;11831;55.918;37.746;2022-12-18T04:17:51;98685.91;;;-2.49;0.00
23318;BME280;11831;55.918;37.746;2022-12-18T04:20:17;98673.16;;;-2.52;0.00
23318;BME280;11831;55.918;37.746;2022-12-18T04:22:43;98698.34;;;-2.59;0.00
23318;BME280;11831;55.918;37.746;2022-12-18T04:25:12;98668.38;;;-2.89;0.00
23318;BME280;11831;55.918;37.746;2022-12-18T04:27:39;98683.13;;;-2.72;0.00
23318;BME280;11831;55.918;37.746;2022-12-18T04:30:07;98686.72;;;-2.73;0.00
23318;BME280;11831;55.918;37.746;2022-12-18T04:32:35;98699.97;;;-2.58;0.00
23318;BME280;11831;55.918;37.746;2022-12-18T04:35:02;98697.53;;;-2.68;0.00
23318;BME280;11831;55.918;37.746;2022-12-18T04:37:30;98699.97;;;-2.74;0.00
23318;BME280;11831;55.918;37.746;2022-12-18T04:39:56;98711.47;;;-2.43;0.00
23318;BME280;11831;55.918;37.746;2022-12-18T04:42:23;98715.16;;;-2.86;0.00
23318;BME280;11831;55.918;37.746;2022-12-18T04:44:50;98723.91;;;-2.37;0.00
23318;BME280;11831;55.918;37.746;2022-12-18T04:47:16;98736.88;;;-2.94;0.00
23318;BME280;11831;55.918;37.746;2022-12-18T04:49:42;98724.84;;;-2.70;0.00
23318;BME280;11831;55.918;37.746;2022-12-18T04:52:09;98749.94;;;-3.02;0.00
23318;BME280;11831;55.918;37.746;2022-12-18T04:54:35;98754.47;;;-2.45;0.00
23318;BME280;11831;55.918;37.746;2022-12-18T04:57:01;98775.56;;;-2.63;0.00
23318;BME280;11831;55.918;37.746;2022-12-18T04:59:28;98796.84;;;-3.34;0.00
23318;BME280;11831;55.918;37.746;2022-12-18T05:01:54;98788.38;;;-3.28;0.00
23318;BME280;11831;55.918;37.746;2022-12-18T05:04:21;98789.22;;;-3.28;0.00
23318;BME280;11831;55.918;37.746;2022-12-18T05:06:47;98772.25;;;-3.50;0.00
23318;BME280;11831;55.918;37.746;2022-12-18T05:09:14;98785.00;;;-3.72;0.00
23318;BME280;11831;55.918;37.746;2022-12-18T05:11:40;98782.53;;;-3.48;0.00
23318;BME280;11831;55.918;37.746;2022-12-18T05:14:07;98782.03;;;-3.78;0.00
23318;BME280;11831;55.918;37.746;2022-12-18T05:16:33;98796.03;;;-3.61;0.00
23318;BME280;11831;55.918;37.746;2022-12-18T05:19:00;98786.09;;;-3.57;0.00
23318;BME280;11831;55.918;37.746;2022-12-18T05:21:26;98779.56;;;-3.27;0.00
23318;BME280;11831;55.918;37.746;2022-12-18T05:23:52;98763.69;;;-2.92;0.00
23318;BME280;11831;55.918;37.746;2022-12-18T05:26:19;98771.06;;;-3.29;0.00
23318;BME280;11831;55.918;37.746;2022-12-18T05:28:45;98765.13;;;-3.05;0.00
23318;BME280;11831;55.918;37.746;2022-12-18T05:31:13;98772.09;;;-3.14;0.00
23318;BME280;11831;55.918;37.746;2022-12-18T05:33:39;98764.38;;;-2.82;0.00
23318;BME280;11831;55.918;37.746;2022-12-18T05:36:07;98780.00;;;-3.06;0.00
23318;BME280;11831;55.918;37.746;2022-12-18T05:38:35;98784.34;;;-3.15;0.00
23318;BME280;11831;55.918;37.746;2022-12-18T05:41:03;98776.28;;;-2.95;0.00
23318;BME280;11831;55.918;37.746;2022-12-18T05:43:30;98786.28;;;-2.83;0.00
23318;BME280;11831;55.918;37.746;2022-12-18T05:45:57;98799.97;;;-2.97;0.00
23318;BME280;11831;55.918;37.746;2022-12-18T05:48:23;98803.00;;;-2.75;0.00
23318;BME280;11831;55.918;37.746;2022-12-18T05:50:50;98798.63;;;-2.67;0.00
23318;BME280;11831;55.918;37.746;2022-12-18T05:53:19;98801.66;;;-3.48;0.00
23318;BME280;11831;55.918;37.746;2022-12-18T05:55:46;98822.16;;;-2.75;0.00
23318;BME280;11831;55.918;37.746;2022-12-18T05:58:13;98822.94;;;-3.17;0.00
23318;BME280;11831;55.918;37.746;2022-12-18T06:00:41;98826.25;;;-2.72;0.00
23318;BME280;11831;55.918;37.746;2022-12-18T06:03:10;98829.34;;;-3.37;0.00
23318;BME280;11831;55.918;37.746;2022-12-18T06:05:40;98835.19;;;-3.17;0.00
23318;BME280;11831;55.918;37.746;2022-12-18T06:08:06;98848.56;;;-3.20;0.00
23318;BME280;11831;55.918;37.746;2022-12-18T06:10:33;98856.06;;;-3.25;0.00
23318;BME280;11831;55.918;37.746;2022-12-18T06:13:00;98849.38;;;-2.94;0.00
23318;BME280;11831;55.918;37.746;2022-12-18T06:15:26;98846.97;;;-3.13;0.00
23318;BME280;11831;55.918;37.746;2022-12-18T06:17:53;98860.47;;;-3.26;0.00
23318;BME280;11831;55.918;37.746;2022-12-18T06:20:20;98874.81;;;-3.04;0.00
23318;BME280;11831;55.918;37.746;2022-12-18T06:22:46;98877.09;;;-2.75;0.00
23318;BME280;11831;55.918;37.746;2022-12-18T06:25:12;98866.56;;;-3.17;0.00
23318;BME280;11831;55.918;37.746;2022-12-18T06:27:40;98869.44;;;-3.02;0.00
23318;BME280;11831;55.918;37.746;2022-12-18T06:30:07;98865.34;;;-2.71;0.00
23318;BME280;11831;55.918;37.746;2022-12-18T06:32:34;98866.94;;;-2.78;0.00
23318;BME280;11831;55.918;37.746;2022-12-18T06:35:01;98874.59;;;-2.85;0.00
23318;BME280;11831;55.918;37.746;2022-12-18T06:37:31;98876.34;;;-2.59;0.00
23318;BME280;11831;55.918;37.746;2022-12-18T06:39:57;98879.16;;;-2.87;0.00
23318;BME280;11831;55.918;37.746;2022-12-18T06:42:24;98890.75;;;-3.41;0.00
23318;BME280;11831;55.918;37.746;2022-12-18T06:44:51;98907.41;;;-2.64;0.00
23318;BME280;11831;55.918;37.746;2022-12-18T06:47:18;98903.47;;;-3.20;0.00
23318;BME280;11831;55.918;37.746;2022-12-18T06:49:44;98892.66;;;-3.25;0.00
23318;BME280;11831;55.918;37.746;2022-12-18T06:52:11;98902.87;;;-3.58;0.00
23318;BME280;11831;55.918;37.746;2022-12-18T06:54:37;98895.16;;;-3.41;0.00
23318;BME280;11831;55.918;37.746;2022-12-18T06:57:04;98899.34;;;-3.49;0.00
23318;BME280;11831;55.918;37.746;2022-12-18T06:59:30;98896.19;;;-3.08;0.00
23318;BME280;11831;55.918;37.746;2022-12-18T07:01:56;98915.31;;;-3.34;0.00
23318;BME280;11831;55.918;37.746;2022-12-18T07:04:30;98923.53;;;-3.47;0.00
23318;BME280;11831;55.918;37.746;2022-12-18T07:06:56;98934.91;;;-3.56;0.00
23318;BME280;11831;55.918;37.746;2022-12-18T07:09:24;98932.72;;;-3.42;0.00
23318;BME280;11831;55.918;37.746;2022-12-18T07:11:50;98945.28;;;-3.46;0.00
23318;BME280;11831;55.918;37.746;2022-12-18T07:14:16;98948.13;;;-3.14;0.00
23318;BME280;11831;55.918;37.746;2022-12-18T07:16:43;98941.47;;;-3.34;0.00
23318;BME280;11831;55.918;37.746;2022-12-18T07:19:09;98956.31;;;-3.70;0.00
23318;BME280;11831;55.918;37.746;2022-12-18T07:21:36;98960.38;;;-3.58;0.00
23318;BME280;11831;55.918;37.746;2022-12-18T07:24:02;98970.81;;;-3.76;0.00
23318;BME280;11831;55.918;37.746;2022-12-18T07:26:29;98960.38;;;-3.58;0.00
23318;BME280;11831;55.918;37.746;2022-12-18T07:28:57;98974.78;;;-3.36;0.00
23318;BME280;11831;55.918;37.746;2022-12-18T07:31:24;98971.09;;;-3.25;0.00
23318;BME280;11831;55.918;37.746;2022-12-18T07:33:52;98955.84;;;-3.12;0.00
23318;BME280;11831;55.918;37.746;2022-12-18T07:36:19;98964.44;;;-3.02;0.00
23318;BME280;11831;55.918;37.746;2022-12-18T07:38:49;98957.28;;;-3.18;0.00
23318;BME280;11831;55.918;37.746;2022-12-18T07:41:17;98974.09;;;-3.20;0.00
23318;BME280;11831;55.918;37.746;2022-12-18T07:43:45;98993.44;;;-3.13;0.00
23318;BME280;11831;55.918;37.746;2022-12-18T07:46:12;98990.47;;;-3.36;0.00
23318;BME280;11831;55.918;37.746;2022-12-18T07:48:43;99001.66;;;-3.44;0.00
23318;BME280;11831;55.918;37.746;2022-12-18T07:51:10;99011.81;;;-3.40;0.00
23318;BME280;11831;55.918;37.746;2022-12-18T07:53:39;99019.59;;;-3.49;0.00
23318;BME280;11831;55.918;37.746;2022-12-18T07:56:10;99008.53;;;-3.42;0.00
23318;BME280;11831;55.918;37.746;2022-12-18T07:58:37;98994.28;;;-3.48;0.00
23318;BME280;11831;55.918;37.746;2022-12-18T08:01:09;99002.94;;;-3.48;0.00
23318;BME280;11831;55.918;37.746;2022-12-18T08:03:37;99023.41;;;-2.82;0.00
23318;BME280;11831;55.918;37.746;2022-12-18T08:06:06;99012.09;;;-3.08;0.00
23318;BME280;11831;55.918;37.746;2022-12-18T08:08:33;99013.38;;;-2.68;0.00
23318;BME280;11831;55.918;37.746;2022-12-18T08:11:00;99010.34;;;-2.56;0.00
23318;BME280;11831;55.918;37.746;2022-12-18T08:13:28;99006.19;;;-2.66;0.00
23318;BME280;11831;55.918;37.746;2022-12-18T08:15:59;99022.28;;;-1.85;0.00
23318;BME280;11831;55.918;37.746;2022-12-18T08:18:26;99027.19;;;-2.58;0.00
23318;BME280;11831;55.918;37.746;2022-12-18T08:20:54;99037.50;;;-2.31;0.00
23318;BME280;11831;55.918;37.746;2022-12-18T08:23:21;99026.16;;;-2.39;0.00
23318;BME280;11831;55.918;37.746;2022-12-18T08:25:47;99039.44;;;-2.33;0.00
23318;BME280;11831;55.918;37.746;2022-12-18T08:28:14;99028.94;;;-2.41;0.00
23318;BME280;11831;55.918;37.746;2022-12-18T08:30:40;99038.44;;;-2.40;0.00
23318;BME280;11831;55.918;37.746;2022-12-18T08:33:06;99049.09;;;-2.59;0.00
23318;BME280;11831;55.918;37.746;2022-12-18T08:35:36;99060.12;;;-2.22;0.00
23318;BME280;11831;55.918;37.746;2022-12-18T08:38:03;99066.25;;;-2.65;0.00
23318;BME280;11831;55.918;37.746;2022-12-18T08:40:29;99072.31;;;-2.38;0.00
23318;BME280;11831;55.918;37.746;2022-12-18T08:42:56;99083.34;;;-2.53;0.00
23318;BME280;11831;55.918;37.746;2022-12-18T08:45:40;99067.00;;;-2.72;0.00
23318;BME280;11831;55.918;37.746;2022-12-18T08:48:07;99086.87;;;-2.79;0.00
23318;BME280;11831;55.918;37.746;2022-12-18T08:50:33;99095.81;;;-2.46;0.00
23318;BME280;11831;55.918;37.746;2022-12-18T08:53:00;99089.59;;;-2.71;0.00
23318;BME280;11831;55.918;37.746;2022-12-18T08:55:26;99083.47;;;-2.36;0.00
23318;BME280;11831;55.918;37.746;2022-12-18T08:57:53;99103.94;;;-2.32;0.00
23318;BME280;11831;55.918;37.746;2022-12-18T09:00:20;99094.50;;;-2.25;0.00
23318;BME280;11831;55.918;37.746;2022-12-18T09:02:46;99102.34;;;-2.25;0.00
23318;BME280;11831;55.918;37.746;2022-12-18T09:05:12;99098.16;;;-2.61;0.00
23318;BME280;11831;55.918;37.746;2022-12-18T09:07:39;99084.78;;;-2.32;0.00
23318;BME280;11831;55.918;37.746;2022-12-18T09:10:06;99096.34;;;-2.43;0.00
23318;BME280;11831;55.918;37.746;2022-12-18T09:12:32;99098.88;;;-2.51;0.00
23318;BME280;11831;55.918;37.746;2022-12-18T09:14:58;99102.34;;;-2.51;0.00
23318;BME280;11831;55.918;37.746;2022-12-18T09:17:25;99090.69;;;-2.56;0.00
23318;BME280;11831;55.918;37.746;2022-12-18T09:19:52;99103.81;;;-2.48;0.00
23318;BME280;11831;55.918;37.746;2022-12-18T09:22:19;99104.38;;;-2.62;0.00
23318;BME280;11831;55.918;37.746;2022-12-18T09:24:48;99102.47;;;-2.52;0.00
23318;BME280;11831;55.918;37.746;2022-12-18T09:27:15;99097.44;;;-2.45;0.00
23318;BME280;11831;55.918;37.746;2022-12-18T09:29:42;99113.19;;;-2.20;0.00
23318;BME280;11831;55.918;37.746;2022-12-18T09:32:08;99110.72;;;-2.21;0.00
23318;BME280;11831;55.918;37.746;2022-12-18T09:34:35;99130.16;;;-2.50;0.00
23318;BME280;11831;55.918;37.746;2022-12-18T09:37:02;99132.59;;;-2.30;0.00
23318;BME280;11831;55.918;37.746;2022-12-18T09:39:29;99127.69;;;-2.07;0.00
23318;BME280;11831;55.918;37.746;2022-12-18T09:41:57;99140.19;;;-2.19;0.00
23318;BME280;11831;55.918;37.746;2022-12-18T09:44:25;99133.16;;;-2.19;0.00
23318;BME280;11831;55.918;37.746;2022-12-18T09:47:13;99137.06;;;-2.66;0.00
23318;BME280;11831;55.918;37.746;2022-12-18T09:49:47;99132.09;;;-2.34;0.00
23318;BME280;11831;55.918;37.746;2022-12-18T09:52:32;99164.53;;;-1.75;0.00
23318;BME280;11831;55.918;37.746;2022-12-18T09:55:05;99159.31;;;-2.27;0.00
23318;BME280;11831;55.918;37.746;2022-12-18T09:57:40;99167.50;;;-2.22;0.00
23318;BME280;11831;55.918;37.746;2022-12-18T10:00:19;99174.44;;;-2.38;0.00
23318;BME280;11831;55.918;37.746;2022-12-18T10:02:47;99180.25;;;-1.83;0.00
23318;BME280;11831;55.918;37.746;2022-12-18T10:05:23;99183.38;;;-2.05;0.00
23318;BME280;11831;55.918;37.746;2022-12-18T10:08:01;99167.25;;;-1.84;0.00
23318;BME280;11831;55.918;37.746;2022-12-18T10:10:33;99193.87;;;-2.23;0.00
23318;BME280;11831;55.918;37.746;2022-12-18T10:15:53;99175.94;;;-1.84;0.00
23318;BME280;11831;55.918;37.746;2022-12-18T10:21:15;99197.06;;;-1.85;0.00
23318;BME280;11831;55.918;37.746;2022-12-18T10:23:54;99197.66;;;-2.17;0.00
23318;BME280;11831;55.918;37.746;2022-12-18T10:26:25;99178.97;;;-2.23;0.00
23318;BME280;11831;55.918;37.746;2022-12-18T10:28:53;99195.97;;;-2.27;0.00
23318;BME280;11831;55.918;37.746;2022-12-18T10:31:22;99183.44;;;-2.15;0.00
23318;BME280;11831;55.918;37.746;2022-12-18T10:33:53;99188.81;;;-1.99;0.00
23318;BME280;11831;55.918;37.746;2022-12-18T10:36:23;99184.97;;;-2.30;0.00
23318;BME280;11831;55.918;37.746;2022-12-18T10:38:50;99196.25;;;-2.12;0.00
23318;BME280;11831;55.918;37.746;2022-12-18T10:44:22;99183.50;;;-2.51;0.00
23318;BME280;11831;55.918;37.746;2022-12-18T10:47:04;99208.75;;;-1.80;0.00
23318;BME280;11831;55.918;37.746;2022-12-18T10:49:34;99204.19;;;-2.22;0.00
23318;BME280;11831;55.918;37.746;2022-12-18T10:52:18;99188.97;;;-2.44;0.00
23318;BME280;11831;55.918;37.746;2022-12-18T10:55:04;99218.88;;;-2.11;0.00
23318;BME280;11831;55.918;37.746;2022-12-18T10:57:36;99206.09;;;-2.67;0.00
23318;BME280;11831;55.918;37.746;2022-12-18T11:00:35;99216.00;;;-2.17;0.00
23318;BME280;11831;55.918;37.746;2022-12-18T11:03:02;99216.25;;;-2.46;0.00
23318;BME280;11831;55.918;37.746;2022-12-18T11:05:33;99221.03;;;-2.95;0.00
23318;BME280;11831;55.918;37.746;2022-12-18T11:08:01;99233.72;;;-3.00;0.00
23318;BME280;11831;55.918;37.746;2022-12-18T11:10:49;99243.53;;;-2.85;0.00
23318;BME280;11831;55.918;37.746;2022-12-18T11:13:28;99213.53;;;-2.90;0.00
23318;BME280;11831;55.918;37.746;2022-12-18T11:16:03;99231.94;;;-2.82;0.00
23318;BME280;11831;55.918;37.746;2022-12-18T11:18:34;99217.44;;;-2.76;0.00
23318;BME280;11831;55.918;37.746;2022-12-18T11:21:09;99258.47;;;-2.77;0.00
23318;BME280;11831;55.918;37.746;2022-12-18T11:23:37;99241.41;;;-2.71;0.00
23318;BME280;11831;55.918;37.746;2022-12-18T11:26:11;99246.41;;;-3.05;0.00
23318;BME280;11831;55.918;37.746;2022-12-18T11:28:52;99249.53;;;-2.74;0.00
23318;BME280;11831;55.918;37.746;2022-12-18T11:31:24;99267.13;;;-2.67;0.00
23318;BME280;11831;55.918;37.746;2022-12-18T11:36:27;99287.84;;;-2.56;0.00
23318;BME280;11831;55.918;37.746;2022-12-18T11:38:56;99281.66;;;-2.82;0.00
23318;BME280;11831;55.918;37.746;2022-12-18T11:41:48;99278.38;;;-2.84;0.00
23318;BME280;11831;55.918;37.746;2022-12-18T11:45:04;99291.66;;;-2.68;0.00
23318;BME280;11831;55.918;37.746;2022-12-18T11:53:17;99287.25;;;-2.67;0.00
23318;BME280;11831;55.918;37.746;2022-12-18T11:58:47;99300.31;;;-2.67;0.00
23318;BME280;11831;55.918;37.746;2022-12-18T12:12:39;99289.97;;;-2.87;0.00
23318;BME280;11831;55.918;37.746;2022-12-18T12:21:27;99333.56;;;-3.05;0.00
23318;BME280;11831;55.918;37.746;2022-12-18T12:24:26;99337.78;;;-2.94;0.00
23318;BME280;11831;55.918;37.746;2022-12-18T12:33:17;99333.38;;;-2.21;0.00
23318;BME280;11831;55.918;37.746;2022-12-18T12:38:17;99379.41;;;-3.01;0.00
23318;BME280;11831;55.918;37.746;2022-12-18T12:40:52;99373.25;;;-2.82;0.00
23318;BME280;11831;55.918;37.746;2022-12-18T12:43:43;99383.91;;;-2.93;0.00
23318;BME280;11831;55.918;37.746;2022-12-18T12:46:12;99385.75;;;-3.03;0.00
23318;BME280;11831;55.918;37.746;2022-12-18T12:48:42;99384.19;;;-2.96;0.00
23318;BME280;11831;55.918;37.746;2022-12-18T12:51:28;99400.19;;;-2.17;0.00
23318;BME280;11831;55.918;37.746;2022-12-18T12:53:56;99402.94;;;-3.01;0.00
23318;BME280;11831;55.918;37.746;2022-12-18T12:56:47;99416.50;;;-3.25;0.00
23318;BME280;11831;55.918;37.746;2022-12-18T13:02:39;99411.97;;;-3.52;0.00
23318;BME280;11831;55.918;37.746;2022-12-18T13:05:24;99410.75;;;-3.67;0.00
23318;BME280;11831;55.918;37.746;2022-12-18T13:07:57;99399.59;;;-3.69;0.00
23318;BME280;11831;55.918;37.746;2022-12-18T13:10:32;99439.22;;;-3.93;0.00
23318;BME280;11831;55.918;37.746;2022-12-18T13:13:10;99451.59;;;-3.76;0.00
23318;BME280;11831;55.918;37.746;2022-12-18T13:20:48;99461.78;;;-3.63;0.00
23318;BME280;11831;55.918;37.746;2022-12-18T13:23:26;99468.22;;;-3.86;0.00
23318;BME280;11831;55.918;37.746;2022-12-18T13:34:16;99486.50;;;-3.86;0.00
23318;BME280;11831;55.918;37.746;2022-12-18T13:36:43;99490.81;;;-3.56;0.00
23318;BME280;11831;55.918;37.746;2022-12-18T13:39:31;99497.84;;;-3.57;0.00
23318;BME280;11831;55.918;37.746;2022-12-18T13:44:56;99503.56;;;-3.72;0.00
23318;BME280;11831;55.918;37.746;2022-12-18T13:47:34;99520.37;;;-3.65;0.00
23318;BME280;11831;55.918;37.746;2022-12-18T13:50:21;99517.91;;;-3.57;0.00
23318;BME280;11831;55.918;37.746;2022-12-18T13:52:50;99503.28;;;-3.89;0.00
23318;BME280;11831;55.918;37.746;2022-12-18T13:55:19;99531.16;;;-3.99;0.00
23318;BME280;11831;55.918;37.746;2022-12-18T13:57:46;99534.06;;;-3.92;0.00
23318;BME280;11831;55.918;37.746;2022-12-18T14:02:45;99542.31;;;-3.97;0.00
23318;BME280;11831;55.918;37.746;2022-12-18T14:05:31;99551.81;;;-3.96;0.00
23318;BME280;11831;55.918;37.746;2022-12-18T14:08:03;99538.56;;;-4.04;0.00
23318;BME280;11831;55.918;37.746;2022-12-18T14:10:32;99564.69;;;-4.04;0.00
23318;BME280;11831;55.918;37.746;2022-12-18T14:13:05;99568.06;;;-3.83;0.00
23318;BME280;11831;55.918;37.746;2022-12-18T14:18:03;99574.22;;;-3.93;0.00
23318;BME280;11831;55.918;37.746;2022-12-18T14:20:41;99584.56;;;-3.82;0.00
23318;BME280;11831;55.918;37.746;2022-12-18T14:23:37;99603.72;;;-3.72;0.00
23318;BME280;11831;55.918;37.746;2022-12-18T14:28:47;99591.28;;;-3.89;0.00
23318;BME280;11831;55.918;37.746;2022-12-18T14:31:21;99613.88;;;-3.79;0.00
23318;BME280;11831;55.918;37.746;2022-12-18T14:33:49;99601.75;;;-3.80;0.00
23318;BME280;11831;55.918;37.746;2022-12-18T14:36:18;99598.91;;;-4.07;0.00
23318;BME280;11831;55.918;37.746;2022-12-18T14:38:56;99592.06;;;-4.29;0.00
23318;BME280;11831;55.918;37.746;2022-12-18T14:41:24;99634.06;;;-4.11;0.00
23318;BME280;11831;55.918;37.746;2022-12-18T14:43:52;99604.75;;;-4.24;0.00
23318;BME280;11831;55.918;37.746;2022-12-18T14:46:35;99640.22;;;-3.91;0.00
23318;BME280;11831;55.918;37.746;2022-12-18T14:49:29;99637.94;;;-4.06;0.00
23318;BME280;11831;55.918;37.746;2022-12-18T14:54:28;99641.47;;;-4.16;0.00
23318;BME280;11831;55.918;37.746;2022-12-18T14:59:31;99662.72;;;-4.00;0.00
23318;BME280;11831;55.918;37.746;2022-12-18T15:02:22;99643.41;;;-3.88;0.00
23318;BME280;11831;55.918;37.746;2022-12-18T15:07:50;99642.00;;;-4.43;0.00